sensor_id;sensor_type;location;lat;lon;timestamp;temperature;humidity
4874;DHT22;2451;49.970;9.068;2022-08-19T00:01:21;21.40;99.90
4874;DHT22;2451;49.970;9.068;2022-08-19T00:03:47;21.40;99.90
4874;DHT22;2451;49.970;9.068;2022-08-19T00:06:13;21.40;99.90
4874;DHT22;2451;49.970;9.068;2022-08-19T00:08:39;21.40;99.90
4874;DHT22;2451;49.970;9.068;2022-08-19T00:11:05;21.50;99.90
4874;DHT22;2451;49.970;9.068;2022-08-19T00:13:30;21.40;99.90
4874;DHT22;2451;49.970;9.068;2022-08-19T00:15:56;21.50;99.90
4874;DHT22;2451;49.970;9.068;2022-08-19T00:18:24;21.50;99.90
4874;DHT22;2451;49.970;9.068;2022-08-19T00:20:49;21.50;99.90
4874;DHT22;2451;49.970;9.068;2022-08-19T00:23:15;21.50;99.90
4874;DHT22;2451;49.970;9.068;2022-08-19T00:25:41;21.50;99.90
4874;DHT22;2451;49.970;9.068;2022-08-19T00:28:07;21.50;99.90
4874;DHT22;2451;49.970;9.068;2022-08-19T00:30:32;21.50;99.90
4874;DHT22;2451;49.970;9.068;2022-08-19T00:32:58;21.50;99.90
4874;DHT22;2451;49.970;9.068;2022-08-19T00:35:24;21.50;99.90
4874;DHT22;2451;49.970;9.068;2022-08-19T00:37:52;21.50;99.90
4874;DHT22;2451;49.970;9.068;2022-08-19T00:40:17;21.50;99.90
4874;DHT22;2451;49.970;9.068;2022-08-19T00:42:45;21.40;99.90
4874;DHT22;2451;49.970;9.068;2022-08-19T00:45:18;21.40;99.90
4874;DHT22;2451;49.970;9.068;2022-08-19T00:47:45;21.40;99.90
4874;DHT22;2451;49.970;9.068;2022-08-19T00:50:13;21.40;99.90
4874;DHT22;2451;49.970;9.068;2022-08-19T00:52:43;21.40;99.90
4874;DHT22;2451;49.970;9.068;2022-08-19T00:55:14;21.40;99.90
4874;DHT22;2451;49.970;9.068;2022-08-19T00:57:46;21.40;99.90
4874;DHT22;2451;49.970;9.068;2022-08-19T01:00:15;21.40;99.90
4874;DHT22;2451;49.970;9.068;2022-08-19T01:02:42;21.50;99.90
4874;DHT22;2451;49.970;9.068;2022-08-19T01:05:11;21.40;99.90
4874;DHT22;2451;49.970;9.068;2022-08-19T01:07:39;21.40;99.90
4874;DHT22;2451;49.970;9.068;2022-08-19T01:10:08;21.50;99.90
4874;DHT22;2451;49.970;9.068;2022-08-19T01:12:35;21.50;99.90
4874;DHT22;2451;49.970;9.068;2022-08-19T01:15:02;21.40;99.90
4874;DHT22;2451;49.970;9.068;2022-08-19T01:17:28;21.50;99.90
4874;DHT22;2451;49.970;9.068;2022-08-19T01:19:53;21.50;99.90
4874;DHT22;2451;49.970;9.068;2022-08-19T01:22:33;21.40;99.90
4874;DHT22;2451;49.970;9.068;2022-08-19T01:25:01;21.30;99.90
4874;DHT22;2451;49.970;9.068;2022-08-19T01:27:26;21.20;99.90
4874;DHT22;2451;49.970;9.068;2022-08-19T01:29:52;21.10;99.90
4874;DHT22;2451;49.970;9.068;2022-08-19T01:32:18;21.10;99.90
4874;DHT22;2451;49.970;9.068;2022-08-19T01:34:45;21.10;99.90
4874;DHT22;2451;49.970;9.068;2022-08-19T01:37:13;21.10;99.90
4874;DHT22;2451;49.970;9.068;2022-08-19T01:39:40;21.00;99.90
4874;DHT22;2451;49.970;9.068;2022-08-19T01:42:08;21.10;99.90
4874;DHT22;2451;49.970;9.068;2022-08-19T01:44:37;21.10;99.90
4874;DHT22;2451;49.970;9.068;2022-08-19T01:47:03;21.10;99.90
4874;DHT22;2451;49.970;9.068;2022-08-19T01:49:29;21.10;99.90
4874;DHT22;2451;49.970;9.068;2022-08-19T01:51:55;21.10;99.90
4874;DHT22;2451;49.970;9.068;2022-08-19T01:54:23;21.10;99.90
4874;DHT22;2451;49.970;9.068;2022-08-19T01:56:50;21.10;99.90
4874;DHT22;2451;49.970;9.068;2022-08-19T01:59:18;21.20;99.90
4874;DHT22;2451;49.970;9.068;2022-08-19T02:01:45;21.20;99.90
4874;DHT22;2451;49.970;9.068;2022-08-19T02:04:10;21.20;99.90
4874;DHT22;2451;49.970;9.068;2022-08-19T02:06:37;21.20;99.90
4874;DHT22;2451;49.970;9.068;2022-08-19T02:09:04;21.20;99.90
4874;DHT22;2451;49.970;9.068;2022-08-19T02:11:33;21.20;99.90
4874;DHT22;2451;49.970;9.068;2022-08-19T02:14:01;21.20;99.90
4874;DHT22;2451;49.970;9.068;2022-08-19T02:16:27;21.20;99.90
4874;DHT22;2451;49.970;9.068;2022-08-19T02:18:53;21.20;99.90
4874;DHT22;2451;49.970;9.068;2022-08-19T02:21:20;21.20;99.90
4874;DHT22;2451;49.970;9.068;2022-08-19T02:23:46;21.20;99.90
4874;DHT22;2451;49.970;9.068;2022-08-19T02:26:12;21.20;99.90
4874;DHT22;2451;49.970;9.068;2022-08-19T02:28:38;21.30;99.90
4874;DHT22;2451;49.970;9.068;2022-08-19T02:31:08;21.20;99.90
4874;DHT22;2451;49.970;9.068;2022-08-19T02:33:34;21.30;99.90
4874;DHT22;2451;49.970;9.068;2022-08-19T02:36:04;21.20;99.90
4874;DHT22;2451;49.970;9.068;2022-08-19T02:38:29;21.20;99.90
4874;DHT22;2451;49.970;9.068;2022-08-19T02:40:58;21.30;99.90
4874;DHT22;2451;49.970;9.068;2022-08-19T02:43:24;21.20;99.90
4874;DHT22;2451;49.970;9.068;2022-08-19T02:45:51;21.20;99.90
4874;DHT22;2451;49.970;9.068;2022-08-19T02:48:18;21.20;99.90
4874;DHT22;2451;49.970;9.068;2022-08-19T02:50:45;21.20;99.90
4874;DHT22;2451;49.970;9.068;2022-08-19T02:53:11;21.20;99.90
4874;DHT22;2451;49.970;9.068;2022-08-19T02:55:44;21.20;99.90
4874;DHT22;2451;49.970;9.068;2022-08-19T02:58:11;21.10;99.90
4874;DHT22;2451;49.970;9.068;2022-08-19T03:00:44;21.10;99.90
4874;DHT22;2451;49.970;9.068;2022-08-19T03:03:10;21.10;99.90
4874;DHT22;2451;49.970;9.068;2022-08-19T03:05:36;21.10;99.90
4874;DHT22;2451;49.970;9.068;2022-08-19T03:08:01;21.10;99.90
4874;DHT22;2451;49.970;9.068;2022-08-19T03:10:28;21.10;99.90
4874;DHT22;2451;49.970;9.068;2022-08-19T03:12:54;21.10;99.90
4874;DHT22;2451;49.970;9.068;2022-08-19T03:15:19;21.10;99.90
4874;DHT22;2451;49.970;9.068;2022-08-19T03:17:45;21.10;99.90
4874;DHT22;2451;49.970;9.068;2022-08-19T03:20:11;21.00;99.90
4874;DHT22;2451;49.970;9.068;2022-08-19T03:22:36;21.00;99.90
4874;DHT22;2451;49.970;9.068;2022-08-19T03:25:02;21.00;99.90
4874;DHT22;2451;49.970;9.068;2022-08-19T03:27:28;21.00;99.90
4874;DHT22;2451;49.970;9.068;2022-08-19T03:29:55;21.00;99.90
4874;DHT22;2451;49.970;9.068;2022-08-19T03:32:20;21.00;99.90
4874;DHT22;2451;49.970;9.068;2022-08-19T03:34:47;21.00;99.90
4874;DHT22;2451;49.970;9.068;2022-08-19T03:37:12;20.90;99.90
4874;DHT22;2451;49.970;9.068;2022-08-19T03:39:39;20.90;99.90
4874;DHT22;2451;49.970;9.068;2022-08-19T03:42:05;20.90;99.90
4874;DHT22;2451;49.970;9.068;2022-08-19T03:44:31;20.80;99.90
4874;DHT22;2451;49.970;9.068;2022-08-19T03:47:03;20.80;99.90
4874;DHT22;2451;49.970;9.068;2022-08-19T03:49:30;20.80;99.90
4874;DHT22;2451;49.970;9.068;2022-08-19T03:51:58;20.80;99.90
4874;DHT22;2451;49.970;9.068;2022-08-19T03:54:26;20.80;99.90
4874;DHT22;2451;49.970;9.068;2022-08-19T03:56:54;20.80;99.90
4874;DHT22;2451;49.970;9.068;2022-08-19T03:59:23;20.80;99.90
4874;DHT22;2451;49.970;9.068;2022-08-19T04:01:51;20.80;99.90
4874;DHT22;2451;49.970;9.068;2022-08-19T04:04:17;20.80;99.90
4874;DHT22;2451;49.970;9.068;2022-08-19T04:06:43;20.80;99.90
4874;DHT22;2451;49.970;9.068;2022-08-19T04:09:10;20.80;99.90
4874;DHT22;2451;49.970;9.068;2022-08-19T04:11:42;20.80;99.90
4874;DHT22;2451;49.970;9.068;2022-08-19T04:14:10;20.80;99.90
4874;DHT22;2451;49.970;9.068;2022-08-19T04:16:36;20.70;99.90
4874;DHT22;2451;49.970;9.068;2022-08-19T04:19:04;20.70;99.90
4874;DHT22;2451;49.970;9.068;2022-08-19T04:21:30;20.70;99.90
4874;DHT22;2451;49.970;9.068;2022-08-19T04:23:57;20.70;99.90
4874;DHT22;2451;49.970;9.068;2022-08-19T04:26:26;20.70;99.90
4874;DHT22;2451;49.970;9.068;2022-08-19T04:28:52;20.80;99.90
4874;DHT22;2451;49.970;9.068;2022-08-19T04:31:22;20.80;99.90
4874;DHT22;2451;49.970;9.068;2022-08-19T04:33:54;20.80;99.90
4874;DHT22;2451;49.970;9.068;2022-08-19T04:36:28;20.90;99.90
4874;DHT22;2451;49.970;9.068;2022-08-19T04:38:59;20.90;99.90
4874;DHT22;2451;49.970;9.068;2022-08-19T04:41:26;21.00;99.90
4874;DHT22;2451;49.970;9.068;2022-08-19T04:44:11;21.00;99.90
4874;DHT22;2451;49.970;9.068;2022-08-19T04:46:37;21.00;99.90
4874;DHT22;2451;49.970;9.068;2022-08-19T04:49:05;21.10;99.90
4874;DHT22;2451;49.970;9.068;2022-08-19T04:51:32;21.10;99.90
4874;DHT22;2451;49.970;9.068;2022-08-19T04:53:58;21.10;99.90
4874;DHT22;2451;49.970;9.068;2022-08-19T04:56:25;21.10;99.90
4874;DHT22;2451;49.970;9.068;2022-08-19T04:58:53;21.10;99.90
4874;DHT22;2451;49.970;9.068;2022-08-19T05:01:28;21.10;99.90
4874;DHT22;2451;49.970;9.068;2022-08-19T05:03:55;21.10;99.90
4874;DHT22;2451;49.970;9.068;2022-08-19T05:06:22;21.10;99.90
4874;DHT22;2451;49.970;9.068;2022-08-19T05:08:49;21.00;99.90
4874;DHT22;2451;49.970;9.068;2022-08-19T05:11:23;21.00;99.90
4874;DHT22;2451;49.970;9.068;2022-08-19T05:13:49;21.00;99.90
4874;DHT22;2451;49.970;9.068;2022-08-19T05:16:17;21.00;99.90
4874;DHT22;2451;49.970;9.068;2022-08-19T05:18:43;20.90;99.90
4874;DHT22;2451;49.970;9.068;2022-08-19T05:21:29;20.90;99.90
4874;DHT22;2451;49.970;9.068;2022-08-19T05:24:13;20.80;99.90
4874;DHT22;2451;49.970;9.068;2022-08-19T05:26:43;20.70;99.90
4874;DHT22;2451;49.970;9.068;2022-08-19T05:29:10;20.80;99.90
4874;DHT22;2451;49.970;9.068;2022-08-19T05:31:36;20.80;99.90
4874;DHT22;2451;49.970;9.068;2022-08-19T05:34:03;20.80;99.90
4874;DHT22;2451;49.970;9.068;2022-08-19T05:36:35;20.80;99.90
4874;DHT22;2451;49.970;9.068;2022-08-19T05:39:02;20.80;99.90
4874;DHT22;2451;49.970;9.068;2022-08-19T05:41:29;20.80;99.90
4874;DHT22;2451;49.970;9.068;2022-08-19T05:44:01;20.80;99.90
4874;DHT22;2451;49.970;9.068;2022-08-19T05:46:27;20.80;99.90
4874;DHT22;2451;49.970;9.068;2022-08-19T05:48:53;20.80;99.90
4874;DHT22;2451;49.970;9.068;2022-08-19T05:51:22;20.80;99.90
4874;DHT22;2451;49.970;9.068;2022-08-19T05:53:47;20.80;99.90
4874;DHT22;2451;49.970;9.068;2022-08-19T05:56:15;20.80;99.90
4874;DHT22;2451;49.970;9.068;2022-08-19T05:58:42;20.80;99.90
4874;DHT22;2451;49.970;9.068;2022-08-19T06:01:13;21.00;99.90
4874;DHT22;2451;49.970;9.068;2022-08-19T06:03:40;21.00;99.90
4874;DHT22;2451;49.970;9.068;2022-08-19T06:06:06;21.10;99.90
4874;DHT22;2451;49.970;9.068;2022-08-19T06:08:33;21.20;99.90
4874;DHT22;2451;49.970;9.068;2022-08-19T06:11:13;21.20;99.90
4874;DHT22;2451;49.970;9.068;2022-08-19T06:13:39;21.30;99.90
4874;DHT22;2451;49.970;9.068;2022-08-19T06:16:04;21.40;99.90
4874;DHT22;2451;49.970;9.068;2022-08-19T06:18:30;21.40;99.90
4874;DHT22;2451;49.970;9.068;2022-08-19T06:20:55;21.40;99.90
4874;DHT22;2451;49.970;9.068;2022-08-19T06:23:21;21.50;99.90
4874;DHT22;2451;49.970;9.068;2022-08-19T06:25:47;21.50;99.90
4874;DHT22;2451;49.970;9.068;2022-08-19T06:28:12;21.40;99.90
4874;DHT22;2451;49.970;9.068;2022-08-19T06:30:38;21.40;99.90
4874;DHT22;2451;49.970;9.068;2022-08-19T06:33:03;21.40;99.90
4874;DHT22;2451;49.970;9.068;2022-08-19T06:35:29;21.40;99.90
4874;DHT22;2451;49.970;9.068;2022-08-19T06:37:55;21.40;99.90
4874;DHT22;2451;49.970;9.068;2022-08-19T06:40:20;21.40;99.90
4874;DHT22;2451;49.970;9.068;2022-08-19T06:42:46;21.40;99.90
4874;DHT22;2451;49.970;9.068;2022-08-19T06:45:12;21.40;99.90
4874;DHT22;2451;49.970;9.068;2022-08-19T06:47:37;21.50;99.90
4874;DHT22;2451;49.970;9.068;2022-08-19T06:50:03;21.40;99.90
4874;DHT22;2451;49.970;9.068;2022-08-19T06:52:34;21.50;99.90
4874;DHT22;2451;49.970;9.068;2022-08-19T06:55:01;21.50;99.90
4874;DHT22;2451;49.970;9.068;2022-08-19T06:57:27;21.50;99.90
4874;DHT22;2451;49.970;9.068;2022-08-19T06:59:53;21.50;99.90
4874;DHT22;2451;49.970;9.068;2022-08-19T07:02:21;21.60;99.90
4874;DHT22;2451;49.970;9.068;2022-08-19T07:04:51;21.70;99.90
4874;DHT22;2451;49.970;9.068;2022-08-19T07:07:17;21.60;99.90
4874;DHT22;2451;49.970;9.068;2022-08-19T07:09:43;21.70;99.90
4874;DHT22;2451;49.970;9.068;2022-08-19T07:12:12;21.70;99.90
4874;DHT22;2451;49.970;9.068;2022-08-19T07:14:39;21.70;99.90
4874;DHT22;2451;49.970;9.068;2022-08-19T07:17:07;21.60;99.90
4874;DHT22;2451;49.970;9.068;2022-08-19T07:19:34;21.70;99.90
4874;DHT22;2451;49.970;9.068;2022-08-19T07:22:03;21.70;99.90
4874;DHT22;2451;49.970;9.068;2022-08-19T07:24:30;21.80;99.90
4874;DHT22;2451;49.970;9.068;2022-08-19T07:26:59;21.80;99.90
4874;DHT22;2451;49.970;9.068;2022-08-19T07:29:27;21.90;99.90
4874;DHT22;2451;49.970;9.068;2022-08-19T07:31:54;22.00;99.90
4874;DHT22;2451;49.970;9.068;2022-08-19T07:34:24;22.00;99.90
4874;DHT22;2451;49.970;9.068;2022-08-19T07:36:51;22.00;99.90
4874;DHT22;2451;49.970;9.068;2022-08-19T07:39:25;22.00;99.90
4874;DHT22;2451;49.970;9.068;2022-08-19T07:41:51;22.10;99.90
4874;DHT22;2451;49.970;9.068;2022-08-19T07:44:18;22.20;99.90
4874;DHT22;2451;49.970;9.068;2022-08-19T07:46:48;22.20;99.90
4874;DHT22;2451;49.970;9.068;2022-08-19T07:49:14;22.20;99.90
4874;DHT22;2451;49.970;9.068;2022-08-19T07:51:49;22.20;99.90
4874;DHT22;2451;49.970;9.068;2022-08-19T07:54:15;22.30;99.90
4874;DHT22;2451;49.970;9.068;2022-08-19T07:56:40;22.40;99.90
4874;DHT22;2451;49.970;9.068;2022-08-19T07:59:06;22.40;99.90
4874;DHT22;2451;49.970;9.068;2022-08-19T08:01:33;22.40;99.90
4874;DHT22;2451;49.970;9.068;2022-08-19T08:03:58;22.40;99.90
4874;DHT22;2451;49.970;9.068;2022-08-19T08:06:42;22.50;99.90
4874;DHT22;2451;49.970;9.068;2022-08-19T08:09:32;22.60;99.90
4874;DHT22;2451;49.970;9.068;2022-08-19T08:12:12;22.70;99.90
4874;DHT22;2451;49.970;9.068;2022-08-19T08:14:47;22.80;99.90
4874;DHT22;2451;49.970;9.068;2022-08-19T08:17:14;22.80;99.90
4874;DHT22;2451;49.970;9.068;2022-08-19T08:19:41;22.80;99.90
4874;DHT22;2451;49.970;9.068;2022-08-19T08:22:07;22.90;99.90
4874;DHT22;2451;49.970;9.068;2022-08-19T08:24:33;23.00;99.90
4874;DHT22;2451;49.970;9.068;2022-08-19T08:27:00;23.10;99.90
4874;DHT22;2451;49.970;9.068;2022-08-19T08:29:29;23.30;99.90
4874;DHT22;2451;49.970;9.068;2022-08-19T08:31:55;23.60;99.90
4874;DHT22;2451;49.970;9.068;2022-08-19T08:34:21;23.90;99.90
4874;DHT22;2451;49.970;9.068;2022-08-19T08:36:47;24.30;99.90
4874;DHT22;2451;49.970;9.068;2022-08-19T08:39:15;24.80;99.90
4874;DHT22;2451;49.970;9.068;2022-08-19T08:42:10;25.00;99.90
4874;DHT22;2451;49.970;9.068;2022-08-19T08:47:10;25.60;99.90
4874;DHT22;2451;49.970;9.068;2022-08-19T08:49:46;25.90;99.90
4874;DHT22;2451;49.970;9.068;2022-08-19T08:52:22;26.20;99.90
4874;DHT22;2451;49.970;9.068;2022-08-19T08:54:52;25.90;99.90
4874;DHT22;2451;49.970;9.068;2022-08-19T09:00:27;25.80;99.90
4874;DHT22;2451;49.970;9.068;2022-08-19T09:02:54;25.60;99.90
4874;DHT22;2451;49.970;9.068;2022-08-19T09:05:21;25.70;99.90
4874;DHT22;2451;49.970;9.068;2022-08-19T09:10:37;25.60;99.90
4874;DHT22;2451;49.970;9.068;2022-08-19T09:16:20;25.30;99.90
4874;DHT22;2451;49.970;9.068;2022-08-19T09:18:49;25.10;99.90
4874;DHT22;2451;49.970;9.068;2022-08-19T09:21:18;25.00;99.90
4874;DHT22;2451;49.970;9.068;2022-08-19T09:23:44;25.00;99.90
4874;DHT22;2451;49.970;9.068;2022-08-19T09:26:13;24.90;99.90
4874;DHT22;2451;49.970;9.068;2022-08-19T09:28:42;24.90;99.90
4874;DHT22;2451;49.970;9.068;2022-08-19T09:31:24;24.80;99.90
4874;DHT22;2451;49.970;9.068;2022-08-19T09:33:51;24.80;99.90
4874;DHT22;2451;49.970;9.068;2022-08-19T09:36:19;24.80;99.90
4874;DHT22;2451;49.970;9.068;2022-08-19T09:38:45;25.00;99.90
4874;DHT22;2451;49.970;9.068;2022-08-19T09:41:17;25.00;99.90
4874;DHT22;2451;49.970;9.068;2022-08-19T09:43:45;25.10;99.90
4874;DHT22;2451;49.970;9.068;2022-08-19T09:46:11;25.20;99.90
4874;DHT22;2451;49.970;9.068;2022-08-19T09:48:41;25.50;99.90
4874;DHT22;2451;49.970;9.068;2022-08-19T09:51:12;25.80;99.90
4874;DHT22;2451;49.970;9.068;2022-08-19T09:53:41;25.90;99.90
4874;DHT22;2451;49.970;9.068;2022-08-19T09:56:07;26.10;99.90
4874;DHT22;2451;49.970;9.068;2022-08-19T09:58:33;26.30;99.90
4874;DHT22;2451;49.970;9.068;2022-08-19T10:01:00;26.40;99.90
4874;DHT22;2451;49.970;9.068;2022-08-19T10:03:28;26.50;99.90
4874;DHT22;2451;49.970;9.068;2022-08-19T10:05:55;26.80;99.90
4874;DHT22;2451;49.970;9.068;2022-08-19T10:08:28;27.20;99.90
4874;DHT22;2451;49.970;9.068;2022-08-19T10:10:55;27.50;99.90
4874;DHT22;2451;49.970;9.068;2022-08-19T10:13:23;28.10;99.90
4874;DHT22;2451;49.970;9.068;2022-08-19T10:15:50;28.70;99.90
4874;DHT22;2451;49.970;9.068;2022-08-19T10:18:17;29.10;98.80
4874;DHT22;2451;49.970;9.068;2022-08-19T10:20:44;29.50;97.30
4874;DHT22;2451;49.970;9.068;2022-08-19T10:23:11;29.80;97.60
4874;DHT22;2451;49.970;9.068;2022-08-19T10:25:37;30.10;96.90
4874;DHT22;2451;49.970;9.068;2022-08-19T10:28:03;30.20;94.30
4874;DHT22;2451;49.970;9.068;2022-08-19T10:30:29;30.30;94.00
4874;DHT22;2451;49.970;9.068;2022-08-19T10:32:55;30.60;93.70
4874;DHT22;2451;49.970;9.068;2022-08-19T10:35:20;30.80;93.40
4874;DHT22;2451;49.970;9.068;2022-08-19T10:37:46;30.80;93.20
4874;DHT22;2451;49.970;9.068;2022-08-19T10:40:12;30.90;92.40
4874;DHT22;2451;49.970;9.068;2022-08-19T10:42:37;31.10;92.10
4874;DHT22;2451;49.970;9.068;2022-08-19T10:45:04;31.10;92.30
4874;DHT22;2451;49.970;9.068;2022-08-19T10:47:33;31.40;90.20
4874;DHT22;2451;49.970;9.068;2022-08-19T10:49:59;31.80;90.20
4874;DHT22;2451;49.970;9.068;2022-08-19T10:52:45;31.90;89.60
4874;DHT22;2451;49.970;9.068;2022-08-19T10:55:11;31.50;88.80
4874;DHT22;2451;49.970;9.068;2022-08-19T10:57:55;31.50;89.60
4874;DHT22;2451;49.970;9.068;2022-08-19T11:00:23;31.60;88.80
4874;DHT22;2451;49.970;9.068;2022-08-19T11:02:49;31.80;90.00
4874;DHT22;2451;49.970;9.068;2022-08-19T11:05:15;31.50;89.70
4874;DHT22;2451;49.970;9.068;2022-08-19T11:07:42;31.70;89.40
4874;DHT22;2451;49.970;9.068;2022-08-19T11:10:11;31.70;89.00
4874;DHT22;2451;49.970;9.068;2022-08-19T11:12:37;31.90;88.40
4874;DHT22;2451;49.970;9.068;2022-08-19T11:15:05;32.20;88.80
4874;DHT22;2451;49.970;9.068;2022-08-19T11:17:31;32.50;88.80
4874;DHT22;2451;49.970;9.068;2022-08-19T11:19:57;31.90;87.20
4874;DHT22;2451;49.970;9.068;2022-08-19T11:22:22;31.40;88.10
4874;DHT22;2451;49.970;9.068;2022-08-19T11:24:48;30.70;87.90
4874;DHT22;2451;49.970;9.068;2022-08-19T11:27:13;30.20;90.40
4874;DHT22;2451;49.970;9.068;2022-08-19T11:29:39;29.90;90.90
4874;DHT22;2451;49.970;9.068;2022-08-19T11:32:09;30.10;91.50
4874;DHT22;2451;49.970;9.068;2022-08-19T11:34:35;30.70;91.10
4874;DHT22;2451;49.970;9.068;2022-08-19T11:37:02;31.30;90.70
4874;DHT22;2451;49.970;9.068;2022-08-19T11:39:30;31.40;89.20
4874;DHT22;2451;49.970;9.068;2022-08-19T11:41:57;31.40;87.80
4874;DHT22;2451;49.970;9.068;2022-08-19T11:44:23;31.20;88.60
4874;DHT22;2451;49.970;9.068;2022-08-19T11:46:49;30.60;87.60
4874;DHT22;2451;49.970;9.068;2022-08-19T11:49:16;30.00;88.50
4874;DHT22;2451;49.970;9.068;2022-08-19T11:51:44;29.50;91.00
4874;DHT22;2451;49.970;9.068;2022-08-19T11:54:11;29.50;91.30
4874;DHT22;2451;49.970;9.068;2022-08-19T11:56:38;29.60;91.70
4874;DHT22;2451;49.970;9.068;2022-08-19T11:59:04;30.10;91.60
4874;DHT22;2451;49.970;9.068;2022-08-19T12:01:30;30.60;90.20
4874;DHT22;2451;49.970;9.068;2022-08-19T12:03:57;30.50;88.80
4874;DHT22;2451;49.970;9.068;2022-08-19T12:06:26;30.40;88.40
4874;DHT22;2451;49.970;9.068;2022-08-19T12:08:58;30.80;87.60
4874;DHT22;2451;49.970;9.068;2022-08-19T12:11:25;31.20;87.40
4874;DHT22;2451;49.970;9.068;2022-08-19T12:13:51;31.40;85.90
4874;DHT22;2451;49.970;9.068;2022-08-19T12:16:19;31.40;83.90
4874;DHT22;2451;49.970;9.068;2022-08-19T12:18:45;31.10;81.90
4874;DHT22;2451;49.970;9.068;2022-08-19T12:21:16;30.40;83.20
4874;DHT22;2451;49.970;9.068;2022-08-19T12:23:43;29.90;83.50
4874;DHT22;2451;49.970;9.068;2022-08-19T12:26:10;29.50;84.30
4874;DHT22;2451;49.970;9.068;2022-08-19T12:28:37;29.30;85.90
4874;DHT22;2451;49.970;9.068;2022-08-19T12:31:02;29.20;87.80
4874;DHT22;2451;49.970;9.068;2022-08-19T12:33:28;29.20;89.50
4874;DHT22;2451;49.970;9.068;2022-08-19T12:35:55;29.20;89.50
4874;DHT22;2451;49.970;9.068;2022-08-19T12:38:24;29.00;89.00
4874;DHT22;2451;49.970;9.068;2022-08-19T12:40:50;29.00;87.80
4874;DHT22;2451;49.970;9.068;2022-08-19T12:43:21;28.80;88.50
4874;DHT22;2451;49.970;9.068;2022-08-19T12:45:50;28.80;88.40
4874;DHT22;2451;49.970;9.068;2022-08-19T12:48:16;28.80;89.10
4874;DHT22;2451;49.970;9.068;2022-08-19T12:50:44;28.70;87.20
4874;DHT22;2451;49.970;9.068;2022-08-19T12:53:11;28.90;85.90
4874;DHT22;2451;49.970;9.068;2022-08-19T12:55:37;29.20;86.90
4874;DHT22;2451;49.970;9.068;2022-08-19T12:58:03;29.60;85.10
4874;DHT22;2451;49.970;9.068;2022-08-19T13:00:29;30.10;82.90
4874;DHT22;2451;49.970;9.068;2022-08-19T13:02:57;30.40;81.90
4874;DHT22;2451;49.970;9.068;2022-08-19T13:05:27;30.70;81.90
4874;DHT22;2451;49.970;9.068;2022-08-19T13:07:55;31.20;82.20
4874;DHT22;2451;49.970;9.068;2022-08-19T13:10:23;31.50;77.60
4874;DHT22;2451;49.970;9.068;2022-08-19T13:12:50;31.60;77.60
4874;DHT22;2451;49.970;9.068;2022-08-19T13:15:17;31.20;77.60
4874;DHT22;2451;49.970;9.068;2022-08-19T13:17:48;31.20;77.80
4874;DHT22;2451;49.970;9.068;2022-08-19T13:20:15;30.80;77.10
4874;DHT22;2451;49.970;9.068;2022-08-19T13:22:42;30.40;78.70
4874;DHT22;2451;49.970;9.068;2022-08-19T13:25:08;30.20;78.30
4874;DHT22;2451;49.970;9.068;2022-08-19T13:27:34;30.10;79.00
4874;DHT22;2451;49.970;9.068;2022-08-19T13:30:00;30.00;79.50
4874;DHT22;2451;49.970;9.068;2022-08-19T13:32:44;29.90;80.60
4874;DHT22;2451;49.970;9.068;2022-08-19T13:35:28;29.80;79.10
4874;DHT22;2451;49.970;9.068;2022-08-19T13:37:54;29.80;80.50
4874;DHT22;2451;49.970;9.068;2022-08-19T13:40:22;29.60;79.30
4874;DHT22;2451;49.970;9.068;2022-08-19T13:42:51;29.70;79.40
4874;DHT22;2451;49.970;9.068;2022-08-19T13:45:20;29.60;77.90
4874;DHT22;2451;49.970;9.068;2022-08-19T13:47:47;29.60;77.80
4874;DHT22;2451;49.970;9.068;2022-08-19T13:50:19;29.50;79.10
4874;DHT22;2451;49.970;9.068;2022-08-19T13:52:58;29.30;79.00
4874;DHT22;2451;49.970;9.068;2022-08-19T13:55:24;29.30;79.40
4874;DHT22;2451;49.970;9.068;2022-08-19T13:57:55;29.30;79.00
4874;DHT22;2451;49.970;9.068;2022-08-19T14:00:22;29.20;80.00
4874;DHT22;2451;49.970;9.068;2022-08-19T14:02:52;29.20;79.80
4874;DHT22;2451;49.970;9.068;2022-08-19T14:05:18;29.20;80.00
4874;DHT22;2451;49.970;9.068;2022-08-19T14:07:44;29.30;80.30
4874;DHT22;2451;49.970;9.068;2022-08-19T14:10:12;29.30;77.00
4874;DHT22;2451;49.970;9.068;2022-08-19T14:12:38;29.50;76.90
4874;DHT22;2451;49.970;9.068;2022-08-19T14:15:05;29.50;77.40
4874;DHT22;2451;49.970;9.068;2022-08-19T14:17:31;29.50;78.00
4874;DHT22;2451;49.970;9.068;2022-08-19T14:20:02;29.50;78.90
4874;DHT22;2451;49.970;9.068;2022-08-19T14:22:33;29.50;77.50
4874;DHT22;2451;49.970;9.068;2022-08-19T14:24:59;29.40;77.60
4874;DHT22;2451;49.970;9.068;2022-08-19T14:27:24;29.30;78.00
4874;DHT22;2451;49.970;9.068;2022-08-19T14:29:51;29.10;77.90
4874;DHT22;2451;49.970;9.068;2022-08-19T14:32:16;29.00;77.30
4874;DHT22;2451;49.970;9.068;2022-08-19T14:34:42;29.00;78.50
4874;DHT22;2451;49.970;9.068;2022-08-19T14:37:12;28.90;78.70
4874;DHT22;2451;49.970;9.068;2022-08-19T14:39:42;28.80;78.60
4874;DHT22;2451;49.970;9.068;2022-08-19T14:42:09;28.90;79.20
4874;DHT22;2451;49.970;9.068;2022-08-19T14:44:35;28.90;79.50
4874;DHT22;2451;49.970;9.068;2022-08-19T14:47:01;28.80;76.90
4874;DHT22;2451;49.970;9.068;2022-08-19T14:49:27;28.70;76.70
4874;DHT22;2451;49.970;9.068;2022-08-19T14:51:52;28.70;78.50
4874;DHT22;2451;49.970;9.068;2022-08-19T14:54:18;28.80;77.10
4874;DHT22;2451;49.970;9.068;2022-08-19T14:56:44;28.90;79.10
4874;DHT22;2451;49.970;9.068;2022-08-19T14:59:10;28.90;76.90
4874;DHT22;2451;49.970;9.068;2022-08-19T15:01:35;28.90;78.20
4874;DHT22;2451;49.970;9.068;2022-08-19T15:04:01;28.90;76.40
4874;DHT22;2451;49.970;9.068;2022-08-19T15:06:28;28.90;76.10
4874;DHT22;2451;49.970;9.068;2022-08-19T15:08:54;28.90;76.50
4874;DHT22;2451;49.970;9.068;2022-08-19T15:11:23;29.00;76.50
4874;DHT22;2451;49.970;9.068;2022-08-19T15:13:49;29.10;77.00
4874;DHT22;2451;49.970;9.068;2022-08-19T15:16:16;29.10;75.90
4874;DHT22;2451;49.970;9.068;2022-08-19T15:18:42;29.10;75.80
4874;DHT22;2451;49.970;9.068;2022-08-19T15:21:14;29.00;74.70
4874;DHT22;2451;49.970;9.068;2022-08-19T15:23:41;29.00;76.40
4874;DHT22;2451;49.970;9.068;2022-08-19T15:26:07;29.00;76.50
4874;DHT22;2451;49.970;9.068;2022-08-19T15:28:34;29.00;76.50
4874;DHT22;2451;49.970;9.068;2022-08-19T15:30:59;29.00;76.10
4874;DHT22;2451;49.970;9.068;2022-08-19T15:33:26;29.00;75.40
4874;DHT22;2451;49.970;9.068;2022-08-19T15:35:51;28.90;75.10
4874;DHT22;2451;49.970;9.068;2022-08-19T15:38:19;29.00;77.20
4874;DHT22;2451;49.970;9.068;2022-08-19T15:40:46;29.00;77.00
4874;DHT22;2451;49.970;9.068;2022-08-19T15:43:13;28.90;76.80
4874;DHT22;2451;49.970;9.068;2022-08-19T15:45:40;28.80;77.00
4874;DHT22;2451;49.970;9.068;2022-08-19T15:48:06;28.70;76.10
4874;DHT22;2451;49.970;9.068;2022-08-19T15:50:32;28.70;76.40
4874;DHT22;2451;49.970;9.068;2022-08-19T15:53:01;28.50;76.70
4874;DHT22;2451;49.970;9.068;2022-08-19T15:55:30;28.50;76.70
4874;DHT22;2451;49.970;9.068;2022-08-19T15:57:58;28.30;76.40
4874;DHT22;2451;49.970;9.068;2022-08-19T16:00:42;28.20;76.60
4874;DHT22;2451;49.970;9.068;2022-08-19T16:03:26;28.20;77.10
4874;DHT22;2451;49.970;9.068;2022-08-19T16:06:10;28.10;77.10
4874;DHT22;2451;49.970;9.068;2022-08-19T16:08:52;28.10;77.60
4874;DHT22;2451;49.970;9.068;2022-08-19T16:11:19;28.00;76.80
4874;DHT22;2451;49.970;9.068;2022-08-19T16:13:46;27.90;77.10
4874;DHT22;2451;49.970;9.068;2022-08-19T16:16:20;27.90;76.80
4874;DHT22;2451;49.970;9.068;2022-08-19T16:18:46;27.90;76.70